Time;durP1;ratioP1;P1;durP2;ratioP2;P2;SDS_P1;SDS_P2;PMS_P1;PMS_P2;Temp;Humidity;BMP_temperature;BMP_pressure;BME280_temperature;BME280_humidity;BME280_pressure;Samples;Min_cycle;Max_cycle;Signal;HPM_P1;HPM_P2
2022/03/07 00:00:56;;;;;;;12.23;8.10;;;;;;;;;;4940324;28;93474;-77
2022/03/07 00:03:23;;;;;;;10.18;7.90;;;;;;;;;;4940910;28;91507;-75
2022/03/07 00:05:50;;;;;;;14.40;8.20;;;;;;;;;;4940494;28;92621;-75
2022/03/07 00:08:16;;;;;;;10.13;7.63;;;;;;;;;;4940277;28;93894;-77
2022/03/07 00:11:02;;;;;;;10.18;7.93;;;;;;;;;;4938745;28;94544;-76
2022/03/07 00:13:29;;;;;;;11.18;7.90;;;;;;;;;;4939051;28;96887;-76
2022/03/07 00:15:55;;;;;;;12.93;8.55;;;;;;;;;;4939346;28;94079;-77
2022/03/07 00:18:21;;;;;;;8.55;7.75;;;;;;;;;;4943257;28;92295;-76
2022/03/07 00:20:48;;;;;;;9.57;7.18;;;;;;;;;;4939985;28;92951;-75
2022/03/07 00:23:15;;;;;;;9.27;7.75;;;;;;;;;;4939712;28;92568;-76
2022/03/07 00:25:41;;;;;;;11.35;7.60;;;;;;;;;;4940139;28;93436;-76
2022/03/07 00:28:07;;;;;;;13.07;8.15;;;;;;;;;;4940535;28;91989;-77
2022/03/07 00:30:34;;;;;;;10.38;8.10;;;;;;;;;;4940112;28;92266;-76
2022/03/07 00:33:00;;;;;;;10.38;7.85;;;;;;;;;;4939810;28;92990;-75
2022/03/07 00:35:27;;;;;;;11.82;8.25;;;;;;;;;;4937093;28;96829;-75
2022/03/07 00:37:53;;;;;;;13.55;8.40;;;;;;;;;;4939440;28;92298;-76
2022/03/07 00:40:20;;;;;;;12.93;7.88;;;;;;;;;;4941482;28;95367;-75
2022/03/07 00:42:47;;;;;;;10.43;7.95;;;;;;;;;;4944083;28;92212;-76
2022/03/07 00:45:14;;;;;;;10.63;7.75;;;;;;;;;;4940675;28;93174;-76
2022/03/07 00:47:40;;;;;;;10.10;7.95;;;;;;;;;;4970930;28;97230;-76
2022/03/07 00:50:09;;;;;;;9.48;8.05;;;;;;;;;;4938392;28;92458;-75
2022/03/07 00:52:35;;;;;;;12.63;7.85;;;;;;;;;;4938520;28;95328;-75
2022/03/07 00:55:03;;;;;;;11.20;8.43;;;;;;;;;;4938193;28;95498;-76
2022/03/07 00:57:29;;;;;;;10.75;7.57;;;;;;;;;;4938263;28;92386;-75
2022/03/07 00:59:56;;;;;;;12.07;8.70;;;;;;;;;;4936821;28;96235;-75
2022/03/07 01:02:22;;;;;;;12.63;8.63;;;;;;;;;;4942483;28;93635;-75
2022/03/07 01:04:50;;;;;;;13.35;7.95;;;;;;;;;;4939652;28;92806;-75
2022/03/07 01:07:16;;;;;;;11.45;8.23;;;;;;;;;;4937905;28;94128;-75
2022/03/07 01:09:43;;;;;;;12.45;8.60;;;;;;;;;;4939339;28;92439;-75
2022/03/07 01:12:09;;;;;;;11.93;8.60;;;;;;;;;;4939317;28;93466;-75
2022/03/07 01:14:36;;;;;;;11.45;8.38;;;;;;;;;;4939140;28;93721;-75
2022/03/07 01:17:02;;;;;;;9.77;8.27;;;;;;;;;;4922397;28;91834;-76
2022/03/07 01:19:29;;;;;;;9.50;7.80;;;;;;;;;;4937788;28;93921;-75
2022/03/07 01:21:55;;;;;;;10.75;8.77;;;;;;;;;;4942033;28;93822;-76
2022/03/07 01:24:22;;;;;;;11.38;7.95;;;;;;;;;;4937868;28;94768;-76
2022/03/07 01:26:48;;;;;;;9.02;8.07;;;;;;;;;;4937951;28;95065;-75
2022/03/07 01:29:14;;;;;;;12.23;8.35;;;;;;;;;;4937830;28;92324;-76
2022/03/07 01:31:41;;;;;;;9.88;8.23;;;;;;;;;;4937987;28;96456;-75
2022/03/07 01:34:08;;;;;;;11.52;7.88;;;;;;;;;;4937391;28;94470;-76
2022/03/07 01:36:35;;;;;;;10.15;7.88;;;;;;;;;;4939022;28;92261;-77
2022/03/07 01:39:01;;;;;;;10.20;8.40;;;;;;;;;;4938869;28;93479;-76
2022/03/07 01:41:28;;;;;;;11.98;8.00;;;;;;;;;;4937974;28;95124;-76
2022/03/07 01:43:54;;;;;;;9.23;8.23;;;;;;;;;;4939903;28;92511;-76
2022/03/07 01:46:21;;;;;;;9.40;8.25;;;;;;;;;;4937294;28;96032;-76
2022/03/07 01:48:48;;;;;;;11.27;8.18;;;;;;;;;;4935563;28;94821;-76
2022/03/07 01:51:16;;;;;;;10.93;8.00;;;;;;;;;;4937467;28;96738;-76
2022/03/07 01:53:44;;;;;;;10.90;8.48;;;;;;;;;;4937312;28;96126;-76
2022/03/07 01:56:13;;;;;;;9.20;7.78;;;;;;;;;;4937496;28;92432;-76
2022/03/07 01:58:40;;;;;;;9.18;7.93;;;;;;;;;;4921390;28;96246;-76
2022/03/07 02:01:06;;;;;;;11.57;8.60;;;;;;;;;;4937280;28;96002;-76
2022/03/07 02:03:33;;;;;;;11.93;8.70;;;;;;;;;;4938396;28;93130;-76
2022/03/07 02:05:59;;;;;;;11.82;7.65;;;;;;;;;;4941904;28;92787;-75
2022/03/07 02:08:26;;;;;;;10.68;8.48;;;;;;;;;;4921609;28;92374;-75
2022/03/07 02:11:03;;;;;;;10.60;7.85;;;;;;;;;;4937236;28;95853;-76
2022/03/07 02:13:35;;;;;;;10.43;7.63;;;;;;;;;;4935211;28;97812;-77
2022/03/07 02:16:05;;;;;;;11.48;8.02;;;;;;;;;;4938309;28;92371;-78
2022/03/07 02:18:34;;;;;;;10.70;7.45;;;;;;;;;;4937214;28;94951;-77
2022/03/07 02:21:11;;;;;;;11.27;7.93;;;;;;;;;;4936935;28;95876;-77
2022/03/07 02:23:49;;;;;;;11.10;8.00;;;;;;;;;;4936961;28;93262;-78
2022/03/07 02:26:17;;;;;;;12.75;8.15;;;;;;;;;;4937171;28;94871;-75
2022/03/07 02:28:45;;;;;;;10.18;8.38;;;;;;;;;;4939942;28;95067;-76
2022/03/07 02:31:18;;;;;;;11.13;8.07;;;;;;;;;;4937425;28;94582;-78
2022/03/07 02:33:46;;;;;;;10.52;8.32;;;;;;;;;;4936686;28;95430;-77
2022/03/07 02:36:14;;;;;;;10.98;8.50;;;;;;;;;;4937095;28;92266;-77
2022/03/07 02:38:41;;;;;;;13.00;8.65;;;;;;;;;;4936405;28;94775;-76
2022/03/07 02:41:08;;;;;;;12.98;8.98;;;;;;;;;;4936438;28;96421;-75
2022/03/07 02:43:36;;;;;;;10.00;8.73;;;;;;;;;;4936845;28;92463;-76
2022/03/07 02:46:02;;;;;;;12.18;9.68;;;;;;;;;;4936863;28;96249;-77
2022/03/07 02:48:29;;;;;;;19.25;8.50;;;;;;;;;;4937754;28;95888;-76
2022/03/07 02:50:58;;;;;;;15.68;9.27;;;;;;;;;;4950379;28;92778;-76
2022/03/07 02:53:26;;;;;;;13.18;8.90;;;;;;;;;;4939152;28;94480;-76
2022/03/07 02:55:54;;;;;;;13.50;9.05;;;;;;;;;;4939024;28;91600;-77
2022/03/07 02:58:21;;;;;;;12.70;8.98;;;;;;;;;;4941275;28;92862;-76
2022/03/07 03:00:47;;;;;;;15.25;9.43;;;;;;;;;;4941210;28;93634;-79
2022/03/07 03:03:14;;;;;;;14.60;8.80;;;;;;;;;;4939655;28;94695;-76
2022/03/07 03:05:40;;;;;;;16.83;9.38;;;;;;;;;;4923831;28;96940;-78
2022/03/07 03:08:07;;;;;;;13.82;9.48;;;;;;;;;;4940692;28;93446;-77
2022/03/07 03:10:33;;;;;;;14.07;9.40;;;;;;;;;;4941242;28;92225;-79
2022/03/07 03:13:00;;;;;;;15.45;9.82;;;;;;;;;;4943278;28;93574;-77
2022/03/07 03:15:26;;;;;;;11.93;9.27;;;;;;;;;;4941543;28;92355;-77
2022/03/07 03:17:52;;;;;;;14.00;9.68;;;;;;;;;;4940976;28;92555;-77
2022/03/07 03:20:19;;;;;;;13.30;9.68;;;;;;;;;;4941666;28;93114;-77
2022/03/07 03:22:45;;;;;;;12.80;9.95;;;;;;;;;;4940690;28;93425;-76
2022/03/07 03:25:12;;;;;;;13.75;9.40;;;;;;;;;;4941306;28;93221;-78
2022/03/07 03:27:39;;;;;;;13.57;9.85;;;;;;;;;;4939161;28;96033;-77
2022/03/07 03:30:06;;;;;;;14.07;10.38;;;;;;;;;;4940968;28;92317;-77
2022/03/07 03:32:33;;;;;;;15.73;9.70;;;;;;;;;;4943022;28;93701;-76
2022/03/07 03:34:59;;;;;;;13.88;9.27;;;;;;;;;;4940882;28;92377;-77
2022/03/07 03:37:25;;;;;;;15.50;10.02;;;;;;;;;;4940693;28;93739;-77
2022/03/07 03:39:53;;;;;;;15.75;10.30;;;;;;;;;;4938656;28;96124;-75
2022/03/07 03:42:21;;;;;;;15.18;9.57;;;;;;;;;;4938873;28;93473;-77
2022/03/07 03:44:48;;;;;;;14.10;10.07;;;;;;;;;;4940195;28;93458;-76
2022/03/07 03:47:14;;;;;;;13.25;10.38;;;;;;;;;;4938310;28;96729;-76
2022/03/07 03:49:41;;;;;;;13.80;10.30;;;;;;;;;;4939471;28;92889;-77
2022/03/07 03:52:08;;;;;;;13.85;10.00;;;;;;;;;;4937040;28;95102;-75
2022/03/07 03:54:34;;;;;;;14.30;10.10;;;;;;;;;;4942786;28;93830;-76
2022/03/07 03:57:02;;;;;;;13.50;9.68;;;;;;;;;;4938465;28;94610;-76
2022/03/07 03:59:28;;;;;;;14.93;10.07;;;;;;;;;;4938944;28;96580;-78
2022/03/07 04:01:55;;;;;;;15.32;10.38;;;;;;;;;;4922334;28;92341;-76
2022/03/07 04:04:22;;;;;;;14.43;10.13;;;;;;;;;;4939293;28;93318;-78
2022/03/07 04:06:48;;;;;;;14.68;10.52;;;;;;;;;;4939067;28;93777;-77
2022/03/07 04:09:21;;;;;;;18.17;10.45;;;;;;;;;;4939916;28;91510;-79
2022/03/07 04:11:48;;;;;;;13.10;9.63;;;;;;;;;;4938481;28;92469;-77
2022/03/07 04:14:14;;;;;;;15.27;10.48;;;;;;;;;;4940117;28;93648;-76
2022/03/07 04:16:41;;;;;;;16.67;9.93;;;;;;;;;;4941282;28;94689;-79
2022/03/07 04:19:08;;;;;;;15.90;10.50;;;;;;;;;;4939919;28;93746;-76
2022/03/07 04:21:35;;;;;;;19.05;11.10;;;;;;;;;;4938323;28;92360;-76
2022/03/07 04:24:02;;;;;;;13.60;10.02;;;;;;;;;;4939547;28;93737;-78
2022/03/07 04:26:28;;;;;;;15.43;9.90;;;;;;;;;;4938339;28;94285;-76
2022/03/07 04:28:55;;;;;;;17.42;10.85;;;;;;;;;;4938712;28;92365;-77
2022/03/07 04:31:21;;;;;;;13.07;9.82;;;;;;;;;;4937945;28;94607;-77
2022/03/07 04:33:48;;;;;;;12.80;9.68;;;;;;;;;;4940085;28;92117;-75
2022/03/07 04:36:18;;;;;;;11.68;9.65;;;;;;;;;;4940018;28;92155;-76
2022/03/07 04:38:45;;;;;;;16.73;9.40;;;;;;;;;;4942754;28;93969;-75
2022/03/07 04:41:12;;;;;;;14.85;9.48;;;;;;;;;;4937140;28;94786;-76
2022/03/07 04:43:39;;;;;;;14.65;10.10;;;;;;;;;;4938795;28;98566;-76
2022/03/07 04:46:09;;;;;;;14.93;9.55;;;;;;;;;;4938516;28;92415;-76
2022/03/07 04:48:36;;;;;;;12.25;9.88;;;;;;;;;;4935872;28;92253;-77
2022/03/07 04:51:02;;;;;;;16.13;9.77;;;;;;;;;;4939768;28;93836;-76
2022/03/07 04:53:29;;;;;;;12.77;9.63;;;;;;;;;;4938772;28;93477;-76
2022/03/07 04:55:56;;;;;;;14.52;9.68;;;;;;;;;;4948145;28;92770;-74
2022/03/07 04:58:22;;;;;;;14.85;9.23;;;;;;;;;;4951568;28;92373;-78
2022/03/07 05:00:49;;;;;;;16.65;10.73;;;;;;;;;;4947129;28;92249;-78
2022/03/07 05:03:16;;;;;;;12.80;9.80;;;;;;;;;;4939161;28;92917;-77
2022/03/07 05:05:42;;;;;;;14.98;9.38;;;;;;;;;;4937751;28;95773;-78
2022/03/07 05:08:09;;;;;;;13.15;9.52;;;;;;;;;;4939107;28;92267;-77
2022/03/07 05:10:35;;;;;;;14.50;9.38;;;;;;;;;;4939453;28;93323;-78
2022/03/07 05:13:01;;;;;;;13.35;9.70;;;;;;;;;;4939313;28;93683;-76
2022/03/07 05:15:28;;;;;;;14.45;9.75;;;;;;;;;;4938839;28;93826;-76
2022/03/07 05:17:54;;;;;;;16.27;9.98;;;;;;;;;;4938614;28;93426;-76
2022/03/07 05:20:22;;;;;;;13.10;9.18;;;;;;;;;;4935994;28;93431;-76
2022/03/07 05:23:09;;;;;;;18.48;10.15;;;;;;;;;;4942015;28;91505;-76
2022/03/07 05:25:36;;;;;;;14.73;9.10;;;;;;;;;;4937910;28;92530;-76
2022/03/07 05:28:02;;;;;;;12.45;9.20;;;;;;;;;;4937764;28;92412;-76
2022/03/07 05:30:28;;;;;;;15.00;9.85;;;;;;;;;;4937532;28;95007;-76
2022/03/07 05:32:56;;;;;;;13.70;9.57;;;;;;;;;;4939019;28;93856;-75
2022/03/07 05:35:23;;;;;;;11.10;9.18;;;;;;;;;;4938119;28;92344;-76
2022/03/07 05:37:50;;;;;;;20.38;9.98;;;;;;;;;;4939290;28;92170;-76
2022/03/07 05:40:17;;;;;;;15.88;10.45;;;;;;;;;;4936435;28;94159;-75
2022/03/07 05:42:44;;;;;;;17.67;10.38;;;;;;;;;;4941233;28;92142;-76
2022/03/07 05:45:11;;;;;;;13.75;10.20;;;;;;;;;;4939889;28;93573;-76
2022/03/07 05:47:38;;;;;;;12.10;9.68;;;;;;;;;;4939477;28;91523;-76
2022/03/07 05:50:05;;;;;;;14.43;10.10;;;;;;;;;;4938920;28;94386;-75
2022/03/07 05:52:31;;;;;;;17.08;10.85;;;;;;;;;;4938483;28;93113;-75
2022/03/07 05:54:58;;;;;;;13.30;9.75;;;;;;;;;;4936709;28;94726;-77
2022/03/07 05:57:24;;;;;;;18.35;10.48;;;;;;;;;;4939014;28;95112;-75
2022/03/07 05:59:51;;;;;;;14.40;9.82;;;;;;;;;;4939541;28;93142;-74
2022/03/07 06:02:17;;;;;;;13.65;9.98;;;;;;;;;;4938741;28;92370;-75
2022/03/07 06:04:44;;;;;;;19.70;10.75;;;;;;;;;;4940658;28;93583;-75
2022/03/07 06:07:10;;;;;;;17.42;10.57;;;;;;;;;;4937827;28;92408;-74
2022/03/07 06:09:37;;;;;;;15.35;9.95;;;;;;;;;;4937023;28;94621;-74
2022/03/07 06:12:03;;;;;;;19.00;9.55;;;;;;;;;;4938613;28;93301;-75
2022/03/07 06:14:30;;;;;;;17.75;10.57;;;;;;;;;;4936939;28;92427;-74
2022/03/07 06:16:56;;;;;;;18.10;9.60;;;;;;;;;;4937520;28;93341;-75
2022/03/07 06:19:23;;;;;;;17.13;9.40;;;;;;;;;;4935281;28;98321;-75
2022/03/07 06:21:49;;;;;;;18.38;9.95;;;;;;;;;;4919879;28;92514;-74
2022/03/07 06:24:16;;;;;;;18.75;10.88;;;;;;;;;;4938335;28;93310;-75
2022/03/07 06:26:42;;;;;;;19.02;11.05;;;;;;;;;;4939721;28;93242;-75
2022/03/07 06:29:08;;;;;;;15.45;10.45;;;;;;;;;;4937737;28;92844;-75
2022/03/07 06:31:35;;;;;;;15.82;9.90;;;;;;;;;;4937084;28;93526;-76
2022/03/07 06:34:03;;;;;;;15.18;10.13;;;;;;;;;;4938370;28;92473;-76
2022/03/07 06:36:29;;;;;;;15.93;10.20;;;;;;;;;;4937765;28;93495;-76
2022/03/07 06:38:56;;;;;;;14.55;10.32;;;;;;;;;;4936930;28;93664;-75
2022/03/07 06:41:22;;;;;;;17.00;10.38;;;;;;;;;;4935862;28;92319;-75
2022/03/07 06:43:48;;;;;;;14.70;9.85;;;;;;;;;;4934580;28;95140;-73
2022/03/07 06:46:15;;;;;;;14.68;9.32;;;;;;;;;;4937101;28;94799;-75
2022/03/07 06:48:41;;;;;;;15.82;10.40;;;;;;;;;;4941097;28;92153;-76
2022/03/07 06:51:08;;;;;;;15.60;10.65;;;;;;;;;;4935621;28;96790;-77
2022/03/07 06:53:35;;;;;;;17.00;10.50;;;;;;;;;;4936761;28;92339;-76
2022/03/07 06:56:01;;;;;;;14.07;10.18;;;;;;;;;;4937080;28;94313;-75
2022/03/07 06:58:28;;;;;;;16.42;11.02;;;;;;;;;;4937037;28;93267;-76
2022/03/07 07:00:54;;;;;;;16.15;10.88;;;;;;;;;;4937772;28;91610;-76
2022/03/07 07:03:21;;;;;;;14.60;10.60;;;;;;;;;;4937240;28;93401;-74
2022/03/07 07:05:48;;;;;;;18.55;10.82;;;;;;;;;;4946060;28;93247;-75
2022/03/07 07:08:14;;;;;;;20.45;11.52;;;;;;;;;;4940019;28;94634;-75
2022/03/07 07:10:40;;;;;;;16.80;10.85;;;;;;;;;;4939097;28;95316;-75
2022/03/07 07:13:07;;;;;;;16.67;10.57;;;;;;;;;;4937137;28;92144;-75
2022/03/07 07:15:33;;;;;;;13.68;10.52;;;;;;;;;;4936973;28;93707;-75
2022/03/07 07:18:00;;;;;;;16.65;10.45;;;;;;;;;;4936804;28;93677;-78
2022/03/07 07:20:26;;;;;;;14.32;9.57;;;;;;;;;;4936061;28;92430;-75
2022/03/07 07:22:53;;;;;;;18.02;10.73;;;;;;;;;;4937643;28;92785;-77
2022/03/07 07:25:19;;;;;;;14.20;10.68;;;;;;;;;;4937223;28;93279;-75
2022/03/07 07:27:45;;;;;;;20.85;10.93;;;;;;;;;;4937791;28;92332;-78
2022/03/07 07:30:12;;;;;;;18.35;11.45;;;;;;;;;;4939858;28;94553;-76
2022/03/07 07:32:39;;;;;;;20.63;12.02;;;;;;;;;;4936829;28;94615;-77
2022/03/07 07:35:06;;;;;;;21.65;12.20;;;;;;;;;;4938522;28;95938;-75
2022/03/07 07:37:32;;;;;;;29.40;13.45;;;;;;;;;;4938838;28;93292;-75
2022/03/07 07:39:59;;;;;;;20.88;13.02;;;;;;;;;;4936973;28;92370;-77
2022/03/07 07:42:28;;;;;;;22.50;14.27;;;;;;;;;;4937805;28;93641;-76
2022/03/07 07:44:55;;;;;;;20.08;13.18;;;;;;;;;;4938532;28;96190;-76
2022/03/07 07:47:21;;;;;;;25.27;16.25;;;;;;;;;;4940008;28;92301;-75
2022/03/07 07:49:48;;;;;;;21.25;13.70;;;;;;;;;;4939978;28;93450;-75
2022/03/07 07:52:14;;;;;;;20.20;13.45;;;;;;;;;;4942839;28;93654;-75
2022/03/07 07:54:41;;;;;;;22.65;14.63;;;;;;;;;;4939914;28;93029;-75
2022/03/07 07:57:10;;;;;;;22.80;14.20;;;;;;;;;;4953392;28;95338;-75
2022/03/07 07:59:36;;;;;;;18.70;13.73;;;;;;;;;;4939569;28;92191;-78
2022/03/07 08:02:33;;;;;;;19.58;15.30;;;;;;;;;;4939406;28;93517;-78
2022/03/07 08:05:00;;;;;;;22.55;15.23;;;;;;;;;;4938589;28;95950;-75
2022/03/07 08:07:34;;;;;;;;;;;;;;;;;;4938899;28;92247;-77
2022/03/07 08:10:01;;;;;;;27.70;14.07;;;;;;;;;;4940711;28;92463;-76
2022/03/07 08:12:28;;;;;;;27.38;14.55;;;;;;;;;;4938355;28;94271;-79
2022/03/07 08:14:56;;;;;;;19.98;14.30;;;;;;;;;;4941871;28;91595;-75
2022/03/07 08:17:23;;;;;;;21.95;14.60;;;;;;;;;;4939462;28;92865;-76
2022/03/07 08:19:49;;;;;;;23.10;15.20;;;;;;;;;;4938289;28;92365;-76
2022/03/07 08:22:15;;;;;;;19.67;14.27;;;;;;;;;;4937739;28;94628;-76
2022/03/07 08:24:42;;;;;;;19.08;14.10;;;;;;;;;;4938857;28;94951;-76
2022/03/07 08:27:09;;;;;;;25.02;13.10;;;;;;;;;;4938634;28;92421;-74
2022/03/07 08:29:35;;;;;;;23.48;14.00;;;;;;;;;;4938190;28;93162;-74
2022/03/07 08:32:02;;;;;;;19.75;13.75;;;;;;;;;;4938831;28;93754;-75
2022/03/07 08:34:28;;;;;;;20.25;13.93;;;;;;;;;;4939127;28;93291;-76
2022/03/07 08:36:55;;;;;;;16.60;13.00;;;;;;;;;;4941839;28;93058;-76
2022/03/07 08:39:21;;;;;;;15.57;13.30;;;;;;;;;;4939184;28;91628;-76
2022/03/07 08:41:47;;;;;;;15.43;12.02;;;;;;;;;;4938544;28;93112;-77
2022/03/07 08:44:14;;;;;;;15.23;12.00;;;;;;;;;;4938816;28;92875;-76
2022/03/07 08:46:41;;;;;;;15.60;13.05;;;;;;;;;;4936722;28;94652;-76
2022/03/07 08:49:07;;;;;;;16.95;12.35;;;;;;;;;;4938633;28;96317;-77
2022/03/07 08:51:34;;;;;;;19.75;12.75;;;;;;;;;;4937205;28;94169;-77
2022/03/07 08:54:00;;;;;;;15.05;12.15;;;;;;;;;;4938548;28;92919;-76
2022/03/07 08:56:27;;;;;;;13.98;11.75;;;;;;;;;;4938021;28;92903;-75
2022/03/07 08:58:53;;;;;;;13.55;10.85;;;;;;;;;;4941233;28;93361;-76
2022/03/07 09:01:20;;;;;;;14.45;12.00;;;;;;;;;;4936917;28;94005;-75
2022/03/07 09:03:47;;;;;;;15.43;11.60;;;;;;;;;;4938681;28;92766;-75
2022/03/07 09:06:13;;;;;;;17.17;12.18;;;;;;;;;;4938051;28;92293;-74
2022/03/07 09:08:40;;;;;;;20.60;12.50;;;;;;;;;;4938098;28;93385;-74
2022/03/07 09:11:06;;;;;;;13.35;11.95;;;;;;;;;;4938416;28;95474;-74
2022/03/07 09:13:32;;;;;;;19.77;12.52;;;;;;;;;;4938262;28;92425;-74
2022/03/07 09:15:59;;;;;;;14.35;11.20;;;;;;;;;;4938164;28;93255;-74
2022/03/07 09:18:26;;;;;;;11.93;10.20;;;;;;;;;;4936773;28;93838;-74
2022/03/07 09:20:52;;;;;;;14.23;11.88;;;;;;;;;;4943703;28;92925;-73
2022/03/07 09:23:19;;;;;;;12.57;11.02;;;;;;;;;;4937639;28;92988;-73
2022/03/07 09:25:45;;;;;;;28.95;17.15;;;;;;;;;;4937375;28;92437;-75
2022/03/07 09:28:11;;;;;;;14.88;11.73;;;;;;;;;;4938423;28;93497;-73
2022/03/07 09:30:38;;;;;;;13.27;11.75;;;;;;;;;;4940465;28;93705;-74
2022/03/07 09:33:04;;;;;;;17.00;11.18;;;;;;;;;;4937623;28;92327;-75
2022/03/07 09:35:31;;;;;;;15.45;11.93;;;;;;;;;;4936118;28;94935;-74
2022/03/07 09:37:58;;;;;;;13.30;11.13;;;;;;;;;;4937623;28;93900;-75
2022/03/07 09:40:28;;;;;;;11.93;10.40;;;;;;;;;;4942911;28;92352;-76
2022/03/07 09:42:59;;;;;;;11.70;10.15;;;;;;;;;;4940815;28;93308;-80
2022/03/07 09:45:48;;;;;;;12.43;10.38;;;;;;;;;;4949961;28;92539;-74
2022/03/07 09:48:15;;;;;;;12.15;10.75;;;;;;;;;;4936689;28;92503;-73
2022/03/07 09:50:43;;;;;;;11.63;10.35;;;;;;;;;;4935435;28;96669;-71
2022/03/07 09:53:13;;;;;;;13.02;10.32;;;;;;;;;;4936776;28;91708;-71
2022/03/07 09:55:40;;;;;;;13.93;11.13;;;;;;;;;;4937657;28;92407;-73
2022/03/07 09:58:07;;;;;;;12.45;9.93;;;;;;;;;;4937379;28;93127;-75
2022/03/07 10:00:33;;;;;;;13.63;9.68;;;;;;;;;;4939581;28;94752;-74
2022/03/07 10:03:02;;;;;;;12.73;9.95;;;;;;;;;;4940713;28;95285;-73
2022/03/07 10:05:32;;;;;;;12.02;10.75;;;;;;;;;;4937210;28;92798;-73
2022/03/07 10:07:58;;;;;;;10.63;9.60;;;;;;;;;;4937015;28;94869;-74
2022/03/07 10:10:32;;;;;;;13.05;10.23;;;;;;;;;;4937720;28;93480;-74
2022/03/07 10:13:10;;;;;;;14.10;10.63;;;;;;;;;;4933186;28;92396;-74
2022/03/07 10:15:37;;;;;;;13.00;10.80;;;;;;;;;;4936683;28;93299;-74
2022/03/07 10:18:04;;;;;;;11.40;10.20;;;;;;;;;;4937386;28;92847;-74
2022/03/07 10:20:33;;;;;;;12.82;10.60;;;;;;;;;;4940548;28;93103;-76
2022/03/07 10:23:01;;;;;;;11.88;10.52;;;;;;;;;;4932119;28;92660;-75
2022/03/07 10:25:33;;;;;;;12.55;10.20;;;;;;;;;;4938346;28;96739;-74
2022/03/07 10:28:01;;;;;;;13.90;10.20;;;;;;;;;;4936127;28;95622;-74
2022/03/07 10:30:29;;;;;;;13.70;9.68;;;;;;;;;;4939000;28;95968;-72
2022/03/07 10:32:57;;;;;;;12.30;9.68;;;;;;;;;;4936933;28;92415;-75
2022/03/07 10:35:32;;;;;;;12.00;10.43;;;;;;;;;;4934221;28;92485;-76
2022/03/07 10:38:09;;;;;;;11.10;9.90;;;;;;;;;;4933485;28;93645;-74
2022/03/07 10:40:37;;;;;;;12.63;9.73;;;;;;;;;;4938504;28;92350;-74
2022/03/07 10:43:04;;;;;;;12.90;10.10;;;;;;;;;;4937785;28;94474;-73
2022/03/07 10:45:31;;;;;;;10.15;9.15;;;;;;;;;;4936854;28;92839;-75
2022/03/07 10:48:02;;;;;;;10.93;9.77;;;;;;;;;;4935446;28;92515;-73
2022/03/07 10:50:29;;;;;;;12.23;9.87;;;;;;;;;;4930630;28;98385;-73
2022/03/07 10:53:00;;;;;;;13.85;9.45;;;;;;;;;;4937009;28;92368;-73
2022/03/07 10:55:27;;;;;;;10.37;9.27;;;;;;;;;;4936711;28;93556;-74
2022/03/07 10:58:03;;;;;;;10.75;9.15;;;;;;;;;;4936957;28;93685;-76
2022/03/07 11:00:30;;;;;;;10.43;9.32;;;;;;;;;;4937676;28;92421;-74
2022/03/07 11:02:56;;;;;;;8.88;7.97;;;;;;;;;;4937313;28;93414;-76
2022/03/07 11:05:23;;;;;;;12.73;7.60;;;;;;;;;;4937279;28;92315;-73
2022/03/07 11:07:49;;;;;;;8.35;7.07;;;;;;;;;;4937392;28;91537;-69
2022/03/07 11:10:16;;;;;;;8.18;7.38;;;;;;;;;;4940448;28;93096;-72
2022/03/07 11:12:43;;;;;;;10.80;7.38;;;;;;;;;;4936997;28;92335;-69
2022/03/07 11:15:10;;;;;;;8.10;7.30;;;;;;;;;;4934286;28;94748;-69
2022/03/07 11:17:39;;;;;;;8.98;7.40;;;;;;;;;;4934481;28;93175;-72
2022/03/07 11:20:07;;;;;;;7.32;6.57;;;;;;;;;;4941747;28;92470;-73
2022/03/07 11:22:34;;;;;;;7.35;6.65;;;;;;;;;;4939969;28;92972;-73
2022/03/07 11:25:02;;;;;;;8.05;7.15;;;;;;;;;;4940210;28;93656;-73
2022/03/07 11:27:29;;;;;;;8.75;6.90;;;;;;;;;;4940443;28;92341;-73
2022/03/07 11:29:55;;;;;;;8.75;6.30;;;;;;;;;;4941905;28;93227;-69
2022/03/07 11:32:22;;;;;;;7.80;7.05;;;;;;;;;;4943541;28;92432;-71
2022/03/07 11:34:52;;;;;;;8.73;7.38;;;;;;;;;;4940106;28;92458;-71
2022/03/07 11:37:19;;;;;;;7.95;7.18;;;;;;;;;;4940037;28;92937;-72
2022/03/07 11:39:46;;;;;;;9.13;7.53;;;;;;;;;;4938392;28;94848;-73
2022/03/07 11:42:14;;;;;;;9.90;7.72;;;;;;;;;;4939838;28;96362;-71
2022/03/07 11:44:42;;;;;;;9.13;8.20;;;;;;;;;;4939874;28;93710;-73
2022/03/07 11:47:13;;;;;;;8.43;7.60;;;;;;;;;;4939829;28;92433;-74
2022/03/07 11:49:40;;;;;;;8.80;7.90;;;;;;;;;;4940468;28;93404;-74
2022/03/07 11:52:10;;;;;;;10.40;8.77;;;;;;;;;;4944157;28;93550;-73
2022/03/07 11:54:53;;;;;;;8.23;7.38;;;;;;;;;;4940169;28;92957;-74
2022/03/07 11:57:31;;;;;;;9.45;8.55;;;;;;;;;;4940492;28;92988;-74
2022/03/07 12:00:08;;;;;;;9.35;8.02;;;;;;;;;;4942572;28;93428;-75
2022/03/07 12:02:39;;;;;;;6.93;6.32;;;;;;;;;;4939872;28;93779;-76
2022/03/07 12:05:06;;;;;;;8.80;7.73;;;;;;;;;;4937946;28;96087;-73
2022/03/07 12:07:32;;;;;;;7.35;6.65;;;;;;;;;;4939889;28;92473;-76
2022/03/07 12:10:06;;;;;;;48.60;36.25;;;;;;;;;;4938918;28;92610;-77
2022/03/07 12:12:32;;;;;;;11.73;10.52;;;;;;;;;;4938524;28;93108;-75
2022/03/07 12:15:06;;;;;;;11.63;9.30;;;;;;;;;;4941997;28;93786;-75
2022/03/07 12:17:32;;;;;;;9.88;8.10;;;;;;;;;;4939255;28;93720;-74
2022/03/07 12:19:59;;;;;;;10.45;8.70;;;;;;;;;;4943036;28;92447;-75
2022/03/07 12:22:30;;;;;;;10.65;8.77;;;;;;;;;;4939842;28;93343;-75
2022/03/07 12:25:00;;;;;;;9.63;8.67;;;;;;;;;;4941262;28;93755;-75
2022/03/07 12:27:27;;;;;;;10.07;9.07;;;;;;;;;;4943349;28;93818;-75
2022/03/07 12:29:53;;;;;;;10.60;8.57;;;;;;;;;;4943183;28;94820;-75
2022/03/07 12:32:20;;;;;;;12.57;8.95;;;;;;;;;;4940561;28;94601;-74
2022/03/07 12:34:54;;;;;;;9.07;8.18;;;;;;;;;;4938120;28;92545;-74
2022/03/07 12:37:22;;;;;;;10.27;9.27;;;;;;;;;;4942515;28;93372;-74
2022/03/07 12:39:54;;;;;;;20.75;12.95;;;;;;;;;;4939013;28;92342;-74
2022/03/07 12:42:31;;;;;;;10.88;9.52;;;;;;;;;;4936481;28;93472;-74
2022/03/07 12:45:00;;;;;;;11.63;9.73;;;;;;;;;;4938549;28;93369;-75
2022/03/07 12:47:29;;;;;;;11.85;9.48;;;;;;;;;;4939151;28;91639;-74
2022/03/07 12:49:55;;;;;;;10.93;9.65;;;;;;;;;;4937245;28;93301;-76
2022/03/07 12:52:24;;;;;;;11.55;10.35;;;;;;;;;;4939063;28;93602;-75
2022/03/07 12:54:51;;;;;;;11.27;9.40;;;;;;;;;;4937303;28;94870;-74
2022/03/07 12:57:17;;;;;;;10.10;9.10;;;;;;;;;;4938206;28;96922;-74
2022/03/07 12:59:47;;;;;;;10.80;9.32;;;;;;;;;;4942490;28;93778;-74
2022/03/07 13:02:13;;;;;;;11.20;9.18;;;;;;;;;;4939467;28;93390;-74
2022/03/07 13:04:40;;;;;;;10.10;8.90;;;;;;;;;;4939105;28;92985;-74
2022/03/07 13:07:08;;;;;;;12.32;9.32;;;;;;;;;;4938888;28;92636;-74
2022/03/07 13:09:35;;;;;;;12.25;9.75;;;;;;;;;;4939245;28;93484;-74
2022/03/07 13:12:02;;;;;;;10.65;9.05;;;;;;;;;;4939741;28;94274;-73
2022/03/07 13:14:32;;;;;;;10.13;9.13;;;;;;;;;;4939257;28;92230;-73
2022/03/07 13:17:05;;;;;;;10.35;9.25;;;;;;;;;;4938349;28;93561;-77
2022/03/07 13:19:31;;;;;;;9.80;8.88;;;;;;;;;;4937220;28;95953;-74
2022/03/07 13:21:58;;;;;;;9.40;8.32;;;;;;;;;;4942162;28;92314;-73
2022/03/07 13:24:25;;;;;;;8.93;8.13;;;;;;;;;;4938990;28;93085;-74
2022/03/07 13:27:02;;;;;;;9.13;8.13;;;;;;;;;;4939067;28;92423;-74
2022/03/07 13:29:32;;;;;;;8.63;7.90;;;;;;;;;;4939111;28;93673;-74
2022/03/07 13:32:00;;;;;;;8.98;8.07;;;;;;;;;;4938308;28;93811;-73
2022/03/07 13:34:27;;;;;;;9.82;8.80;;;;;;;;;;4938679;28;92225;-74
2022/03/07 13:36:56;;;;;;;10.63;8.05;;;;;;;;;;4939122;28;93272;-74
2022/03/07 13:39:28;;;;;;;11.98;8.80;;;;;;;;;;4937877;28;94616;-74
2022/03/07 13:41:59;;;;;;;13.40;9.45;;;;;;;;;;4938850;28;92296;-74
2022/03/07 13:44:26;;;;;;;9.55;7.95;;;;;;;;;;4939819;28;94696;-74
2022/03/07 13:47:08;;;;;;;8.60;7.75;;;;;;;;;;4938699;28;92444;-75
2022/03/07 13:49:48;;;;;;;10.00;8.07;;;;;;;;;;4937365;28;93453;-74
2022/03/07 13:52:15;;;;;;;9.82;8.15;;;;;;;;;;4935711;28;93730;-74
2022/03/07 13:54:42;;;;;;;8.70;7.88;;;;;;;;;;4937354;28;92634;-75
2022/03/07 13:57:33;;;;;;;7.32;6.68;;;;;;;;;;4940132;28;93931;-73
2022/03/07 14:00:01;;;;;;;7.25;6.60;;;;;;;;;;4937807;28;92488;-75
2022/03/07 14:02:38;;;;;;;7.38;6.68;;;;;;;;;;4934026;28;91483;-74
2022/03/07 14:05:06;;;;;;;8.02;7.40;;;;;;;;;;4940770;28;92590;-77
2022/03/07 14:07:33;;;;;;;8.23;7.38;;;;;;;;;;4940059;28;92473;-74
2022/03/07 14:10:07;;;;;;;7.82;6.93;;;;;;;;;;4936456;28;94728;-73
2022/03/07 14:12:34;;;;;;;7.22;6.60;;;;;;;;;;4938041;28;93383;-74
2022/03/07 14:15:28;;;;;;;7.63;6.78;;;;;;;;;;4934524;28;92418;-73
2022/03/07 14:17:58;;;;;;;12.80;7.80;;;;;;;;;;4937222;28;93075;-74
2022/03/07 14:20:25;;;;;;;7.68;7.03;;;;;;;;;;4941553;28;93493;-72
2022/03/07 14:22:52;;;;;;;8.05;7.30;;;;;;;;;;4937489;28;92571;-73
2022/03/07 14:25:19;;;;;;;7.97;7.28;;;;;;;;;;4937930;28;93869;-74
2022/03/07 14:27:45;;;;;;;8.15;7.32;;;;;;;;;;4940972;28;92412;-74
2022/03/07 14:30:12;;;;;;;9.57;7.22;;;;;;;;;;4936989;28;93195;-74
2022/03/07 14:32:39;;;;;;;14.15;7.75;;;;;;;;;;4937177;28;94513;-74